sensor_id;sensor_type;location;lat;lon;timestamp;P1;durP1;ratioP1;P2;durP2;ratioP2
13331;SDS011;6735;51.456;12.626;2022-12-05T00:02:09;192.17;;;70.30;;
13331;SDS011;6735;51.456;12.626;2022-12-05T00:04:34;186.67;;;68.63;;
13331;SDS011;6735;51.456;12.626;2022-12-05T00:07:00;197.97;;;70.97;;
13331;SDS011;6735;51.456;12.626;2022-12-05T00:09:26;196.17;;;71.50;;
13331;SDS011;6735;51.456;12.626;2022-12-05T00:11:51;183.03;;;68.40;;
13331;SDS011;6735;51.456;12.626;2022-12-05T00:14:17;194.83;;;69.57;;
13331;SDS011;6735;51.456;12.626;2022-12-05T00:16:42;175.23;;;68.27;;
13331;SDS011;6735;51.456;12.626;2022-12-05T00:19:09;186.00;;;69.77;;
13331;SDS011;6735;51.456;12.626;2022-12-05T00:21:37;178.07;;;68.67;;
13331;SDS011;6735;51.456;12.626;2022-12-05T00:24:03;168.10;;;65.73;;
13331;SDS011;6735;51.456;12.626;2022-12-05T00:26:31;169.27;;;64.27;;
13331;SDS011;6735;51.456;12.626;2022-12-05T00:28:57;175.37;;;68.10;;
13331;SDS011;6735;51.456;12.626;2022-12-05T00:31:24;179.63;;;67.67;;
13331;SDS011;6735;51.456;12.626;2022-12-05T00:33:51;169.93;;;65.60;;
13331;SDS011;6735;51.456;12.626;2022-12-05T00:36:19;179.17;;;64.93;;
13331;SDS011;6735;51.456;12.626;2022-12-05T00:38:46;160.23;;;62.77;;
13331;SDS011;6735;51.456;12.626;2022-12-05T00:41:13;166.53;;;64.50;;
13331;SDS011;6735;51.456;12.626;2022-12-05T00:43:40;166.10;;;63.67;;
13331;SDS011;6735;51.456;12.626;2022-12-05T00:46:07;176.17;;;65.50;;
13331;SDS011;6735;51.456;12.626;2022-12-05T00:48:34;166.80;;;63.83;;
13331;SDS011;6735;51.456;12.626;2022-12-05T00:51:01;162.17;;;63.37;;
13331;SDS011;6735;51.456;12.626;2022-12-05T00:53:29;159.77;;;63.43;;
13331;SDS011;6735;51.456;12.626;2022-12-05T00:55:55;168.00;;;66.03;;
13331;SDS011;6735;51.456;12.626;2022-12-05T00:58:21;156.80;;;60.90;;
13331;SDS011;6735;51.456;12.626;2022-12-05T01:00:46;160.57;;;63.13;;
13331;SDS011;6735;51.456;12.626;2022-12-05T01:03:12;150.97;;;62.20;;
13331;SDS011;6735;51.456;12.626;2022-12-05T01:05:38;146.33;;;58.50;;
13331;SDS011;6735;51.456;12.626;2022-12-05T01:08:03;161.90;;;61.37;;
13331;SDS011;6735;51.456;12.626;2022-12-05T01:10:29;149.53;;;61.03;;
13331;SDS011;6735;51.456;12.626;2022-12-05T01:12:54;155.63;;;60.73;;
13331;SDS011;6735;51.456;12.626;2022-12-05T01:15:20;145.03;;;58.40;;
13331;SDS011;6735;51.456;12.626;2022-12-05T01:17:45;138.90;;;57.80;;
13331;SDS011;6735;51.456;12.626;2022-12-05T01:20:11;142.87;;;58.83;;
13331;SDS011;6735;51.456;12.626;2022-12-05T01:22:36;135.80;;;58.50;;
13331;SDS011;6735;51.456;12.626;2022-12-05T01:25:02;134.23;;;59.33;;
13331;SDS011;6735;51.456;12.626;2022-12-05T01:27:29;136.93;;;57.53;;
13331;SDS011;6735;51.456;12.626;2022-12-05T01:29:54;129.17;;;56.33;;
13331;SDS011;6735;51.456;12.626;2022-12-05T01:32:20;127.60;;;56.53;;
13331;SDS011;6735;51.456;12.626;2022-12-05T01:34:45;138.23;;;56.73;;
13331;SDS011;6735;51.456;12.626;2022-12-05T01:37:11;121.87;;;56.43;;
13331;SDS011;6735;51.456;12.626;2022-12-05T01:39:36;118.17;;;55.90;;
13331;SDS011;6735;51.456;12.626;2022-12-05T01:42:03;118.73;;;56.13;;
13331;SDS011;6735;51.456;12.626;2022-12-05T01:46:54;119.03;;;53.43;;
13331;SDS011;6735;51.456;12.626;2022-12-05T01:49:38;122.47;;;55.83;;
13331;SDS011;6735;51.456;12.626;2022-12-05T01:52:17;120.77;;;53.63;;
13331;SDS011;6735;51.456;12.626;2022-12-05T01:54:45;114.90;;;54.63;;
13331;SDS011;6735;51.456;12.626;2022-12-05T01:57:13;106.57;;;54.77;;
13331;SDS011;6735;51.456;12.626;2022-12-05T01:59:46;115.93;;;55.60;;
13331;SDS011;6735;51.456;12.626;2022-12-05T02:02:14;114.67;;;54.00;;
13331;SDS011;6735;51.456;12.626;2022-12-05T02:04:43;110.70;;;53.50;;
13331;SDS011;6735;51.456;12.626;2022-12-05T02:07:21;107.93;;;52.47;;
13331;SDS011;6735;51.456;12.626;2022-12-05T02:09:47;106.47;;;53.00;;
13331;SDS011;6735;51.456;12.626;2022-12-05T02:12:14;105.37;;;53.73;;
13331;SDS011;6735;51.456;12.626;2022-12-05T02:14:46;107.00;;;52.03;;
13331;SDS011;6735;51.456;12.626;2022-12-05T02:23:06;101.20;;;50.97;;
13331;SDS011;6735;51.456;12.626;2022-12-05T02:33:46;100.83;;;52.07;;
13331;SDS011;6735;51.456;12.626;2022-12-05T02:36:31;98.23;;;51.47;;
13331;SDS011;6735;51.456;12.626;2022-12-05T02:39:25;93.43;;;49.63;;
13331;SDS011;6735;51.456;12.626;2022-12-05T02:42:01;101.67;;;51.37;;
13331;SDS011;6735;51.456;12.626;2022-12-05T02:44:38;97.90;;;50.53;;
13331;SDS011;6735;51.456;12.626;2022-12-05T02:47:11;93.07;;;49.27;;
13331;SDS011;6735;51.456;12.626;2022-12-05T02:49:40;96.27;;;51.23;;
13331;SDS011;6735;51.456;12.626;2022-12-05T02:52:07;98.93;;;51.60;;
13331;SDS011;6735;51.456;12.626;2022-12-05T02:54:37;100.93;;;51.37;;
13331;SDS011;6735;51.456;12.626;2022-12-05T02:57:06;93.00;;;49.60;;
13331;SDS011;6735;51.456;12.626;2022-12-05T02:59:33;95.37;;;49.47;;
13331;SDS011;6735;51.456;12.626;2022-12-05T03:01:59;99.53;;;49.67;;
13331;SDS011;6735;51.456;12.626;2022-12-05T03:04:24;93.17;;;48.63;;
13331;SDS011;6735;51.456;12.626;2022-12-05T03:06:56;97.83;;;49.30;;
13331;SDS011;6735;51.456;12.626;2022-12-05T03:09:26;92.83;;;49.03;;
13331;SDS011;6735;51.456;12.626;2022-12-05T03:12:11;94.50;;;49.03;;
13331;SDS011;6735;51.456;12.626;2022-12-05T03:15:04;85.57;;;47.67;;
13331;SDS011;6735;51.456;12.626;2022-12-05T03:17:35;89.93;;;47.77;;
13331;SDS011;6735;51.456;12.626;2022-12-05T03:20:11;90.20;;;49.00;;
13331;SDS011;6735;51.456;12.626;2022-12-05T03:22:45;96.47;;;48.40;;
13331;SDS011;6735;51.456;12.626;2022-12-05T03:25:17;94.93;;;48.37;;
13331;SDS011;6735;51.456;12.626;2022-12-05T03:30:26;89.17;;;47.13;;
13331;SDS011;6735;51.456;12.626;2022-12-05T03:33:12;97.13;;;49.23;;
13331;SDS011;6735;51.456;12.626;2022-12-05T03:35:48;90.07;;;48.23;;
13331;SDS011;6735;51.456;12.626;2022-12-05T03:38:30;103.57;;;51.47;;
13331;SDS011;6735;51.456;12.626;2022-12-05T03:43:44;105.67;;;50.87;;
13331;SDS011;6735;51.456;12.626;2022-12-05T03:46:22;96.40;;;50.00;;
13331;SDS011;6735;51.456;12.626;2022-12-05T03:48:56;105.60;;;50.87;;
13331;SDS011;6735;51.456;12.626;2022-12-05T03:51:30;104.47;;;51.87;;
13331;SDS011;6735;51.456;12.626;2022-12-05T03:54:03;98.13;;;49.93;;
13331;SDS011;6735;51.456;12.626;2022-12-05T03:59:46;113.10;;;52.97;;
13331;SDS011;6735;51.456;12.626;2022-12-05T04:02:23;104.67;;;52.40;;
13331;SDS011;6735;51.456;12.626;2022-12-05T04:04:58;113.30;;;52.13;;
13331;SDS011;6735;51.456;12.626;2022-12-05T04:07:26;109.70;;;52.53;;
13331;SDS011;6735;51.456;12.626;2022-12-05T04:09:55;109.00;;;52.67;;
13331;SDS011;6735;51.456;12.626;2022-12-05T04:12:26;117.63;;;53.93;;
13331;SDS011;6735;51.456;12.626;2022-12-05T04:14:55;120.63;;;54.60;;
13331;SDS011;6735;51.456;12.626;2022-12-05T04:17:41;105.07;;;53.77;;
13331;SDS011;6735;51.456;12.626;2022-12-05T04:20:28;108.07;;;52.90;;
13331;SDS011;6735;51.456;12.626;2022-12-05T04:23:17;126.57;;;56.60;;
13331;SDS011;6735;51.456;12.626;2022-12-05T04:26:01;118.30;;;55.03;;
13331;SDS011;6735;51.456;12.626;2022-12-05T04:28:43;110.67;;;53.73;;
13331;SDS011;6735;51.456;12.626;2022-12-05T04:31:23;122.03;;;55.93;;
13331;SDS011;6735;51.456;12.626;2022-12-05T04:33:55;118.87;;;54.37;;
13331;SDS011;6735;51.456;12.626;2022-12-05T04:36:44;116.00;;;56.27;;
13331;SDS011;6735;51.456;12.626;2022-12-05T04:39:15;119.77;;;54.67;;
13331;SDS011;6735;51.456;12.626;2022-12-05T04:41:47;116.23;;;55.03;;
13331;SDS011;6735;51.456;12.626;2022-12-05T04:44:17;120.07;;;57.33;;
13331;SDS011;6735;51.456;12.626;2022-12-05T04:46:47;120.07;;;54.83;;
13331;SDS011;6735;51.456;12.626;2022-12-05T04:49:18;125.00;;;55.80;;
13331;SDS011;6735;51.456;12.626;2022-12-05T04:51:48;119.47;;;55.00;;
13331;SDS011;6735;51.456;12.626;2022-12-05T04:54:17;122.03;;;56.20;;
13331;SDS011;6735;51.456;12.626;2022-12-05T04:56:46;125.83;;;57.17;;
13331;SDS011;6735;51.456;12.626;2022-12-05T04:59:14;113.50;;;53.80;;
13331;SDS011;6735;51.456;12.626;2022-12-05T05:01:41;124.17;;;56.37;;
13331;SDS011;6735;51.456;12.626;2022-12-05T05:04:21;120.07;;;55.20;;
13331;SDS011;6735;51.456;12.626;2022-12-05T05:06:54;115.60;;;55.53;;
13331;SDS011;6735;51.456;12.626;2022-12-05T05:09:20;121.10;;;56.13;;
13331;SDS011;6735;51.456;12.626;2022-12-05T05:11:45;123.53;;;54.40;;
13331;SDS011;6735;51.456;12.626;2022-12-05T05:14:11;118.47;;;54.27;;
13331;SDS011;6735;51.456;12.626;2022-12-05T05:16:38;131.23;;;55.97;;
13331;SDS011;6735;51.456;12.626;2022-12-05T05:19:06;132.53;;;56.00;;
13331;SDS011;6735;51.456;12.626;2022-12-05T05:21:36;117.33;;;52.83;;
13331;SDS011;6735;51.456;12.626;2022-12-05T05:24:03;109.60;;;52.10;;
13331;SDS011;6735;51.456;12.626;2022-12-05T05:26:32;110.97;;;51.63;;
13331;SDS011;6735;51.456;12.626;2022-12-05T05:28:59;102.37;;;50.87;;
13331;SDS011;6735;51.456;12.626;2022-12-05T05:31:25;114.70;;;53.27;;
13331;SDS011;6735;51.456;12.626;2022-12-05T05:33:51;106.90;;;50.77;;
13331;SDS011;6735;51.456;12.626;2022-12-05T05:36:18;123.70;;;54.20;;
13331;SDS011;6735;51.456;12.626;2022-12-05T05:38:46;107.03;;;53.23;;
13331;SDS011;6735;51.456;12.626;2022-12-05T05:41:14;116.70;;;54.53;;
13331;SDS011;6735;51.456;12.626;2022-12-05T05:43:41;141.03;;;64.20;;
13331;SDS011;6735;51.456;12.626;2022-12-05T05:46:07;122.37;;;58.77;;
13331;SDS011;6735;51.456;12.626;2022-12-05T05:48:33;108.37;;;55.13;;
13331;SDS011;6735;51.456;12.626;2022-12-05T05:51:00;117.13;;;52.73;;
13331;SDS011;6735;51.456;12.626;2022-12-05T05:53:26;104.53;;;52.50;;
13331;SDS011;6735;51.456;12.626;2022-12-05T05:55:51;103.23;;;50.17;;
13331;SDS011;6735;51.456;12.626;2022-12-05T05:58:17;101.77;;;52.07;;
13331;SDS011;6735;51.456;12.626;2022-12-05T06:00:42;99.50;;;51.03;;
13331;SDS011;6735;51.456;12.626;2022-12-05T06:03:08;95.70;;;49.00;;
13331;SDS011;6735;51.456;12.626;2022-12-05T06:05:33;97.37;;;48.93;;
13331;SDS011;6735;51.456;12.626;2022-12-05T06:07:59;96.87;;;48.77;;
13331;SDS011;6735;51.456;12.626;2022-12-05T06:10:25;115.53;;;50.50;;
13331;SDS011;6735;51.456;12.626;2022-12-05T06:12:50;97.23;;;47.33;;
13331;SDS011;6735;51.456;12.626;2022-12-05T06:15:16;94.37;;;48.73;;
13331;SDS011;6735;51.456;12.626;2022-12-05T06:17:42;98.80;;;48.53;;
13331;SDS011;6735;51.456;12.626;2022-12-05T06:20:07;99.70;;;48.67;;
13331;SDS011;6735;51.456;12.626;2022-12-05T06:22:33;96.00;;;48.07;;
13331;SDS011;6735;51.456;12.626;2022-12-05T06:24:58;92.67;;;47.73;;
13331;SDS011;6735;51.456;12.626;2022-12-05T06:27:24;93.73;;;47.93;;
13331;SDS011;6735;51.456;12.626;2022-12-05T06:29:50;98.23;;;48.80;;
13331;SDS011;6735;51.456;12.626;2022-12-05T06:32:15;102.80;;;48.67;;
13331;SDS011;6735;51.456;12.626;2022-12-05T06:34:41;86.63;;;45.30;;
13331;SDS011;6735;51.456;12.626;2022-12-05T06:37:06;92.10;;;47.37;;
13331;SDS011;6735;51.456;12.626;2022-12-05T06:39:32;95.17;;;48.87;;
13331;SDS011;6735;51.456;12.626;2022-12-05T06:41:57;110.83;;;62.80;;
13331;SDS011;6735;51.456;12.626;2022-12-05T06:44:23;108.37;;;52.93;;
13331;SDS011;6735;51.456;12.626;2022-12-05T06:46:50;103.27;;;51.00;;
13331;SDS011;6735;51.456;12.626;2022-12-05T06:49:17;90.27;;;49.80;;
13331;SDS011;6735;51.456;12.626;2022-12-05T06:51:42;102.93;;;49.67;;
13331;SDS011;6735;51.456;12.626;2022-12-05T06:54:10;101.27;;;48.87;;
13331;SDS011;6735;51.456;12.626;2022-12-05T06:56:36;119.57;;;51.17;;
13331;SDS011;6735;51.456;12.626;2022-12-05T06:59:01;94.83;;;48.03;;
13331;SDS011;6735;51.456;12.626;2022-12-05T07:01:27;91.77;;;47.67;;
13331;SDS011;6735;51.456;12.626;2022-12-05T07:06:36;97.10;;;49.20;;
13331;SDS011;6735;51.456;12.626;2022-12-05T07:09:02;104.40;;;51.00;;
13331;SDS011;6735;51.456;12.626;2022-12-05T07:11:29;86.80;;;47.77;;
13331;SDS011;6735;51.456;12.626;2022-12-05T07:13:54;114.70;;;51.07;;
13331;SDS011;6735;51.456;12.626;2022-12-05T07:16:20;123.27;;;51.23;;
13331;SDS011;6735;51.456;12.626;2022-12-05T07:18:45;89.37;;;48.00;;
13331;SDS011;6735;51.456;12.626;2022-12-05T07:21:11;89.50;;;47.50;;
13331;SDS011;6735;51.456;12.626;2022-12-05T07:23:38;105.33;;;50.23;;
13331;SDS011;6735;51.456;12.626;2022-12-05T07:26:05;89.17;;;48.17;;
13331;SDS011;6735;51.456;12.626;2022-12-05T07:28:33;115.73;;;52.00;;
13331;SDS011;6735;51.456;12.626;2022-12-05T07:31:20;112.90;;;52.73;;
13331;SDS011;6735;51.456;12.626;2022-12-05T07:33:46;96.27;;;48.30;;
13331;SDS011;6735;51.456;12.626;2022-12-05T07:36:14;109.77;;;51.03;;
13331;SDS011;6735;51.456;12.626;2022-12-05T07:38:42;96.77;;;48.97;;
13331;SDS011;6735;51.456;12.626;2022-12-05T07:41:27;119.53;;;52.87;;
13331;SDS011;6735;51.456;12.626;2022-12-05T07:43:55;93.20;;;50.70;;
13331;SDS011;6735;51.456;12.626;2022-12-05T07:46:23;107.23;;;51.73;;
13331;SDS011;6735;51.456;12.626;2022-12-05T07:48:49;106.70;;;51.47;;
13331;SDS011;6735;51.456;12.626;2022-12-05T07:51:15;98.40;;;51.27;;
13331;SDS011;6735;51.456;12.626;2022-12-05T07:53:41;98.97;;;52.73;;
13331;SDS011;6735;51.456;12.626;2022-12-05T07:56:08;98.60;;;51.00;;
13331;SDS011;6735;51.456;12.626;2022-12-05T07:58:36;90.60;;;49.70;;
13331;SDS011;6735;51.456;12.626;2022-12-05T08:01:09;93.37;;;50.07;;
13331;SDS011;6735;51.456;12.626;2022-12-05T08:03:36;98.90;;;51.37;;
13331;SDS011;6735;51.456;12.626;2022-12-05T08:06:03;117.00;;;53.67;;
13331;SDS011;6735;51.456;12.626;2022-12-05T08:08:30;92.43;;;51.00;;
13331;SDS011;6735;51.456;12.626;2022-12-05T08:10:56;111.23;;;53.10;;
13331;SDS011;6735;51.456;12.626;2022-12-05T08:13:26;116.87;;;52.33;;
13331;SDS011;6735;51.456;12.626;2022-12-05T08:15:53;123.47;;;54.80;;
13331;SDS011;6735;51.456;12.626;2022-12-05T08:18:18;114.37;;;54.73;;
13331;SDS011;6735;51.456;12.626;2022-12-05T08:20:44;111.50;;;57.37;;
13331;SDS011;6735;51.456;12.626;2022-12-05T08:23:09;105.77;;;54.37;;
13331;SDS011;6735;51.456;12.626;2022-12-05T08:25:35;105.37;;;53.70;;
13331;SDS011;6735;51.456;12.626;2022-12-05T08:28:00;110.60;;;53.37;;
13331;SDS011;6735;51.456;12.626;2022-12-05T08:30:26;107.60;;;54.13;;
13331;SDS011;6735;51.456;12.626;2022-12-05T08:32:51;97.00;;;52.80;;
13331;SDS011;6735;51.456;12.626;2022-12-05T08:35:17;104.17;;;52.83;;
13331;SDS011;6735;51.456;12.626;2022-12-05T08:37:42;102.80;;;52.83;;
13331;SDS011;6735;51.456;12.626;2022-12-05T08:40:08;97.27;;;51.97;;
13331;SDS011;6735;51.456;12.626;2022-12-05T08:42:34;87.23;;;50.30;;
13331;SDS011;6735;51.456;12.626;2022-12-05T08:44:59;93.03;;;53.27;;
13331;SDS011;6735;51.456;12.626;2022-12-05T08:47:25;95.40;;;50.97;;
13331;SDS011;6735;51.456;12.626;2022-12-05T08:49:51;141.47;;;108.77;;
13331;SDS011;6735;51.456;12.626;2022-12-05T08:52:16;97.07;;;58.07;;
13331;SDS011;6735;51.456;12.626;2022-12-05T08:54:42;89.53;;;52.43;;
13331;SDS011;6735;51.456;12.626;2022-12-05T08:57:07;83.43;;;48.43;;
13331;SDS011;6735;51.456;12.626;2022-12-05T08:59:33;91.13;;;51.30;;
13331;SDS011;6735;51.456;12.626;2022-12-05T09:01:58;83.77;;;49.10;;
13331;SDS011;6735;51.456;12.626;2022-12-05T09:04:24;87.97;;;48.63;;
13331;SDS011;6735;51.456;12.626;2022-12-05T09:06:49;90.57;;;50.63;;
13331;SDS011;6735;51.456;12.626;2022-12-05T09:09:15;85.97;;;49.73;;
13331;SDS011;6735;51.456;12.626;2022-12-05T09:11:42;87.77;;;49.40;;
13331;SDS011;6735;51.456;12.626;2022-12-05T09:14:12;88.07;;;50.33;;
13331;SDS011;6735;51.456;12.626;2022-12-05T09:16:39;87.93;;;49.77;;
13331;SDS011;6735;51.456;12.626;2022-12-05T09:19:09;89.33;;;52.87;;
13331;SDS011;6735;51.456;12.626;2022-12-05T09:21:44;93.27;;;51.97;;
13331;SDS011;6735;51.456;12.626;2022-12-05T09:24:10;84.73;;;50.30;;
13331;SDS011;6735;51.456;12.626;2022-12-05T09:26:37;85.50;;;51.80;;
13331;SDS011;6735;51.456;12.626;2022-12-05T09:29:03;89.90;;;50.40;;
13331;SDS011;6735;51.456;12.626;2022-12-05T09:31:28;98.60;;;52.13;;
13331;SDS011;6735;51.456;12.626;2022-12-05T09:33:54;87.63;;;51.23;;
13331;SDS011;6735;51.456;12.626;2022-12-05T09:36:21;81.03;;;48.90;;
13331;SDS011;6735;51.456;12.626;2022-12-05T09:38:48;78.17;;;47.97;;
13331;SDS011;6735;51.456;12.626;2022-12-05T09:44:30;66.87;;;42.37;;
13331;SDS011;6735;51.456;12.626;2022-12-05T09:50:13;61.37;;;39.50;;
13331;SDS011;6735;51.456;12.626;2022-12-05T09:55:42;63.87;;;39.67;;
13331;SDS011;6735;51.456;12.626;2022-12-05T10:01:09;54.60;;;37.30;;
13331;SDS011;6735;51.456;12.626;2022-12-05T10:03:43;61.97;;;38.13;;
13331;SDS011;6735;51.456;12.626;2022-12-05T10:06:14;51.80;;;36.13;;
13331;SDS011;6735;51.456;12.626;2022-12-05T10:17:24;54.33;;;35.57;;
13331;SDS011;6735;51.456;12.626;2022-12-05T10:19:55;56.03;;;34.93;;
13331;SDS011;6735;51.456;12.626;2022-12-05T10:22:27;55.60;;;35.10;;
13331;SDS011;6735;51.456;12.626;2022-12-05T10:25:02;50.27;;;33.73;;
13331;SDS011;6735;51.456;12.626;2022-12-05T10:27:31;48.77;;;34.33;;
13331;SDS011;6735;51.456;12.626;2022-12-05T10:30:13;51.73;;;33.33;;
13331;SDS011;6735;51.456;12.626;2022-12-05T10:37:47;51.27;;;34.20;;
13331;SDS011;6735;51.456;12.626;2022-12-05T10:40:17;52.17;;;34.43;;
13331;SDS011;6735;51.456;12.626;2022-12-05T10:42:43;55.60;;;34.30;;
13331;SDS011;6735;51.456;12.626;2022-12-05T10:45:16;58.40;;;35.13;;
13331;SDS011;6735;51.456;12.626;2022-12-05T10:47:44;51.20;;;33.87;;
13331;SDS011;6735;51.456;12.626;2022-12-05T10:50:18;49.07;;;34.53;;
13331;SDS011;6735;51.456;12.626;2022-12-05T10:52:47;57.33;;;34.57;;
13331;SDS011;6735;51.456;12.626;2022-12-05T10:55:14;52.63;;;33.97;;
13331;SDS011;6735;51.456;12.626;2022-12-05T10:57:41;52.13;;;34.17;;
13331;SDS011;6735;51.456;12.626;2022-12-05T11:00:12;52.67;;;34.77;;
13331;SDS011;6735;51.456;12.626;2022-12-05T11:02:39;53.00;;;35.63;;
13331;SDS011;6735;51.456;12.626;2022-12-05T11:05:06;50.17;;;33.73;;
13331;SDS011;6735;51.456;12.626;2022-12-05T11:10:19;49.93;;;34.10;;
13331;SDS011;6735;51.456;12.626;2022-12-05T11:12:47;51.20;;;34.70;;
13331;SDS011;6735;51.456;12.626;2022-12-05T11:17:46;50.33;;;34.27;;
13331;SDS011;6735;51.456;12.626;2022-12-05T11:22:48;50.10;;;32.63;;
13331;SDS011;6735;51.456;12.626;2022-12-05T11:25:27;49.13;;;32.63;;
13331;SDS011;6735;51.456;12.626;2022-12-05T11:28:21;47.57;;;32.40;;
13331;SDS011;6735;51.456;12.626;2022-12-05T11:30:57;52.80;;;33.17;;
13331;SDS011;6735;51.456;12.626;2022-12-05T11:33:23;43.17;;;31.37;;
13331;SDS011;6735;51.456;12.626;2022-12-05T11:35:51;50.13;;;34.00;;
13331;SDS011;6735;51.456;12.626;2022-12-05T11:38:20;51.23;;;33.17;;
13331;SDS011;6735;51.456;12.626;2022-12-05T11:40:54;48.20;;;34.00;;
13331;SDS011;6735;51.456;12.626;2022-12-05T11:43:50;50.50;;;33.40;;
13331;SDS011;6735;51.456;12.626;2022-12-05T12:02:51;40.87;;;29.73;;
13331;SDS011;6735;51.456;12.626;2022-12-05T12:22:01;41.97;;;30.17;;
13331;SDS011;6735;51.456;12.626;2022-12-05T12:24:55;42.40;;;29.20;;
13331;SDS011;6735;51.456;12.626;2022-12-05T12:30:11;39.83;;;29.20;;
13331;SDS011;6735;51.456;12.626;2022-12-05T12:33:04;42.67;;;29.30;;
13331;SDS011;6735;51.456;12.626;2022-12-05T12:35:55;39.87;;;29.20;;
13331;SDS011;6735;51.456;12.626;2022-12-05T12:38:51;41.63;;;28.87;;
13331;SDS011;6735;51.456;12.626;2022-12-05T12:47:13;47.00;;;30.07;;
13331;SDS011;6735;51.456;12.626;2022-12-05T12:49:58;39.50;;;29.43;;
13331;SDS011;6735;51.456;12.626;2022-12-05T12:55:38;39.57;;;28.77;;
13331;SDS011;6735;51.456;12.626;2022-12-05T12:58:16;42.67;;;29.17;;
13331;SDS011;6735;51.456;12.626;2022-12-05T13:01:09;39.97;;;29.00;;
13331;SDS011;6735;51.456;12.626;2022-12-05T13:03:51;36.87;;;28.00;;
13331;SDS011;6735;51.456;12.626;2022-12-05T13:06:34;44.40;;;28.97;;
13331;SDS011;6735;51.456;12.626;2022-12-05T13:11:46;37.20;;;28.17;;
13331;SDS011;6735;51.456;12.626;2022-12-05T13:14:15;34.00;;;26.70;;
13331;SDS011;6735;51.456;12.626;2022-12-05T13:16:45;35.87;;;26.93;;
13331;SDS011;6735;51.456;12.626;2022-12-05T13:22:07;33.60;;;25.97;;
13331;SDS011;6735;51.456;12.626;2022-12-05T13:24:34;31.67;;;25.47;;
13331;SDS011;6735;51.456;12.626;2022-12-05T13:27:01;31.13;;;25.47;;
13331;SDS011;6735;51.456;12.626;2022-12-05T13:29:32;33.40;;;25.77;;
13331;SDS011;6735;51.456;12.626;2022-12-05T13:32:00;33.87;;;25.90;;
13331;SDS011;6735;51.456;12.626;2022-12-05T13:37:00;30.10;;;26.10;;
13331;SDS011;6735;51.456;12.626;2022-12-05T13:39:54;31.57;;;25.90;;
13331;SDS011;6735;51.456;12.626;2022-12-05T13:42:39;32.70;;;26.27;;
13331;SDS011;6735;51.456;12.626;2022-12-05T13:45:07;33.87;;;27.23;;
13331;SDS011;6735;51.456;12.626;2022-12-05T13:47:40;35.67;;;27.70;;
13331;SDS011;6735;51.456;12.626;2022-12-05T13:50:58;31.27;;;26.47;;
13331;SDS011;6735;51.456;12.626;2022-12-05T13:52:59;32.80;;;27.43;;
13331;SDS011;6735;51.456;12.626;2022-12-05T13:55:35;33.77;;;27.20;;
13331;SDS011;6735;51.456;12.626;2022-12-05T14:00:42;32.10;;;27.10;;
13331;SDS011;6735;51.456;12.626;2022-12-05T14:05:47;30.97;;;27.47;;
13331;SDS011;6735;51.456;12.626;2022-12-05T14:15:46;31.83;;;25.37;;
13331;SDS011;6735;51.456;12.626;2022-12-05T14:18:25;28.87;;;24.10;;
13331;SDS011;6735;51.456;12.626;2022-12-05T14:29:36;27.70;;;24.13;;
13331;SDS011;6735;51.456;12.626;2022-12-05T14:34:37;26.93;;;23.10;;
13331;SDS011;6735;51.456;12.626;2022-12-05T14:37:22;27.50;;;23.77;;
13331;SDS011;6735;51.456;12.626;2022-12-05T14:40:01;26.67;;;23.43;;
13331;SDS011;6735;51.456;12.626;2022-12-05T14:42:41;26.37;;;23.43;;
13331;SDS011;6735;51.456;12.626;2022-12-05T14:48:04;27.67;;;24.43;;
13331;SDS011;6735;51.456;12.626;2022-12-05T14:50:51;25.13;;;22.43;;
13331;SDS011;6735;51.456;12.626;2022-12-05T14:53:22;29.60;;;23.87;;
13331;SDS011;6735;51.456;12.626;2022-12-05T15:01:48;27.63;;;23.70;;
13331;SDS011;6735;51.456;12.626;2022-12-05T15:04:17;26.63;;;23.17;;
13331;SDS011;6735;51.456;12.626;2022-12-05T15:06:45;28.57;;;24.13;;
13331;SDS011;6735;51.456;12.626;2022-12-05T15:09:33;25.97;;;23.17;;
13331;SDS011;6735;51.456;12.626;2022-12-05T15:12:31;30.30;;;24.63;;
13331;SDS011;6735;51.456;12.626;2022-12-05T15:15:24;32.13;;;25.47;;
13331;SDS011;6735;51.456;12.626;2022-12-05T15:17:55;30.70;;;23.93;;
13331;SDS011;6735;51.456;12.626;2022-12-05T15:20:32;27.17;;;23.37;;
13331;SDS011;6735;51.456;12.626;2022-12-05T15:26:22;25.13;;;22.43;;
13331;SDS011;6735;51.456;12.626;2022-12-05T15:28:56;24.73;;;21.83;;
13331;SDS011;6735;51.456;12.626;2022-12-05T15:31:46;26.10;;;22.67;;
13331;SDS011;6735;51.456;12.626;2022-12-05T15:37:12;25.60;;;22.47;;
13331;SDS011;6735;51.456;12.626;2022-12-05T15:39:50;25.23;;;21.30;;
13331;SDS011;6735;51.456;12.626;2022-12-05T15:42:28;25.47;;;22.77;;
13331;SDS011;6735;51.456;12.626;2022-12-05T15:47:56;23.47;;;20.97;;
13331;SDS011;6735;51.456;12.626;2022-12-05T15:50:39;24.10;;;20.97;;
13331;SDS011;6735;51.456;12.626;2022-12-05T15:53:17;24.23;;;20.73;;
13331;SDS011;6735;51.456;12.626;2022-12-05T15:55:53;22.23;;;19.80;;
13331;SDS011;6735;51.456;12.626;2022-12-05T15:58:26;24.93;;;21.37;;
13331;SDS011;6735;51.456;12.626;2022-12-05T16:01:06;24.83;;;22.17;;
13331;SDS011;6735;51.456;12.626;2022-12-05T16:03:49;24.40;;;21.70;;
13331;SDS011;6735;51.456;12.626;2022-12-05T16:06:18;24.57;;;21.87;;
13331;SDS011;6735;51.456;12.626;2022-12-05T16:09:07;26.07;;;21.57;;
13331;SDS011;6735;51.456;12.626;2022-12-05T16:11:37;23.03;;;20.50;;
13331;SDS011;6735;51.456;12.626;2022-12-05T16:14:03;21.63;;;19.43;;
13331;SDS011;6735;51.456;12.626;2022-12-05T16:16:32;22.70;;;19.77;;
13331;SDS011;6735;51.456;12.626;2022-12-05T16:19:04;22.07;;;19.13;;
13331;SDS011;6735;51.456;12.626;2022-12-05T16:21:37;21.20;;;18.90;;
13331;SDS011;6735;51.456;12.626;2022-12-05T16:24:06;22.47;;;19.13;;
13331;SDS011;6735;51.456;12.626;2022-12-05T16:26:39;21.07;;;18.67;;
13331;SDS011;6735;51.456;12.626;2022-12-05T16:29:05;23.03;;;19.67;;
13331;SDS011;6735;51.456;12.626;2022-12-05T16:31:33;24.27;;;20.63;;
13331;SDS011;6735;51.456;12.626;2022-12-05T16:34:03;21.93;;;19.47;;
13331;SDS011;6735;51.456;12.626;2022-12-05T16:36:30;22.43;;;19.13;;
13331;SDS011;6735;51.456;12.626;2022-12-05T16:39:00;22.53;;;18.30;;
13331;SDS011;6735;51.456;12.626;2022-12-05T16:41:34;19.67;;;17.67;;
13331;SDS011;6735;51.456;12.626;2022-12-05T16:44:01;22.77;;;18.50;;
13331;SDS011;6735;51.456;12.626;2022-12-05T16:46:40;20.87;;;18.70;;
13331;SDS011;6735;51.456;12.626;2022-12-05T16:52:00;21.30;;;18.80;;
13331;SDS011;6735;51.456;12.626;2022-12-05T16:54:31;20.37;;;18.37;;
13331;SDS011;6735;51.456;12.626;2022-12-05T16:56:57;20.73;;;18.33;;
13331;SDS011;6735;51.456;12.626;2022-12-05T16:59:30;21.80;;;19.50;;
13331;SDS011;6735;51.456;12.626;2022-12-05T17:02:01;21.70;;;19.33;;
13331;SDS011;6735;51.456;12.626;2022-12-05T17:04:27;21.87;;;19.43;;
13331;SDS011;6735;51.456;12.626;2022-12-05T17:06:53;23.63;;;21.00;;
13331;SDS011;6735;51.456;12.626;2022-12-05T17:09:19;28.20;;;23.57;;
13331;SDS011;6735;51.456;12.626;2022-12-05T17:11:44;25.23;;;22.53;;
13331;SDS011;6735;51.456;12.626;2022-12-05T17:14:13;25.77;;;21.73;;
13331;SDS011;6735;51.456;12.626;2022-12-05T17:16:40;23.57;;;20.97;;